Time;durP1;ratioP1;P1;durP2;ratioP2;P2;SDS_P1;SDS_P2;PMS_P1;PMS_P2;Temp;Humidity;BMP_temperature;BMP_pressure;BME280_temperature;BME280_humidity;BME280_pressure;Samples;Min_cycle;Max_cycle;Signal;HPM_P1;HPM_P2
2021/01/27 00:01:47;;;;;;;18.23;11.30;;;;;;;-1.01;76.01;93663.13;4134996;28;20393;-83
2021/01/27 00:03:49;;;;;;;19.30;11.35;;;;;;;-1.16;76.03;93659.94;4132766;28;20114;-82
2021/01/27 00:05:51;;;;;;;17.27;10.82;;;;;;;-1.19;76.56;93649.88;4142468;28;20113;-83
2021/01/27 00:07:52;;;;;;;16.83;9.90;;;;;;;-1.13;76.45;93651.19;4138538;28;20058;-84
2021/01/27 00:09:54;;;;;;;15.88;10.05;;;;;;;-1.15;75.96;93648.72;4146245;28;20101;-84
2021/01/27 00:11:56;;;;;;;17.17;10.35;;;;;;;-1.14;76.27;93655.50;4138797;28;20057;-82
2021/01/27 00:13:57;;;;;;;17.00;10.63;;;;;;;-1.12;76.23;93661.34;4133547;28;20058;-84
2021/01/27 00:15:58;;;;;;;17.05;11.05;;;;;;;-1.16;76.96;93666.81;4140678;28;20062;-82
2021/01/27 00:18:00;;;;;;;16.02;10.60;;;;;;;-1.09;76.55;93661.09;4130322;28;20053;-82
2021/01/27 00:20:03;;;;;;;16.42;10.52;;;;;;;-1.00;76.10;93658.78;4139957;28;20050;-82
2021/01/27 00:22:05;;;;;;;15.85;9.93;;;;;;;-1.00;76.09;93664.75;4136604;28;20050;-83
2021/01/27 00:24:06;;;;;;;16.85;11.00;;;;;;;-0.98;75.85;93655.16;4126442;28;20058;-85
2021/01/27 00:26:08;;;;;;;18.30;10.70;;;;;;;-0.96;75.75;93657.63;4117353;28;20493;-83
2021/01/27 00:28:09;;;;;;;16.00;10.70;;;;;;;-0.93;75.41;93665.91;4132660;28;20057;-84
2021/01/27 00:30:21;;;;;;;16.35;10.52;;;;;;;-0.93;75.24;93665.91;4134826;28;20520;-83
2021/01/27 00:32:23;;;;;;;17.63;10.35;;;;;;;-0.89;75.15;93664.75;4135907;28;20051;-85
2021/01/27 00:34:24;;;;;;;15.45;10.43;;;;;;;-0.81;74.72;93671.09;4130950;28;20055;-84
2021/01/27 00:36:25;;;;;;;16.40;10.40;;;;;;;-0.76;74.74;93666.41;4134782;28;20054;-83
2021/01/27 00:38:27;;;;;;;16.60;10.60;;;;;;;-0.87;74.44;93662.88;4133457;28;20065;-85
2021/01/27 00:40:28;;;;;;;17.30;10.02;;;;;;;-0.83;74.90;93655.75;4133988;28;20124;-84
2021/01/27 00:42:30;;;;;;;15.07;9.50;;;;;;;-0.83;74.57;93668.63;4135754;28;20422;-87
2021/01/27 00:44:31;;;;;;;15.52;9.40;;;;;;;-0.83;74.39;93659.16;4118857;28;20055;-82
2021/01/27 00:46:32;;;;;;;14.50;9.85;;;;;;;-0.94;74.82;93660.91;4139146;28;20575;-83
2021/01/27 00:48:33;;;;;;;16.52;10.25;;;;;;;-0.98;74.80;93662.88;4137235;28;20054;-84
2021/01/27 00:50:35;;;;;;;14.68;9.95;;;;;;;-0.95;75.21;93656.69;4139516;28;20054;-84
2021/01/27 00:52:36;;;;;;;16.13;9.73;;;;;;;-0.96;75.33;93660.19;4145029;28;20085;-83
2021/01/27 00:54:37;;;;;;;14.48;9.55;;;;;;;-0.88;75.31;93652.72;4135683;28;20124;-84
2021/01/27 00:56:38;;;;;;;16.27;10.43;;;;;;;-0.83;74.38;93650.63;4133853;28;20054;-83
2021/01/27 00:58:40;;;;;;;15.35;9.88;;;;;;;-0.73;74.73;93645.56;4134559;28;20047;-82
2021/01/27 01:00:42;;;;;;;18.75;11.20;;;;;;;-0.69;74.83;93652.13;4121200;28;20051;-83
2021/01/27 01:02:43;;;;;;;14.57;10.20;;;;;;;-0.73;74.82;93658.44;4130785;28;20082;-83
2021/01/27 01:04:44;;;;;;;14.57;9.88;;;;;;;-0.81;74.25;93656.47;4127305;28;20078;-85
2021/01/27 01:06:46;;;;;;;16.17;9.57;;;;;;;-0.75;74.40;93652.59;4134891;28;20046;-83
2021/01/27 01:08:47;;;;;;;16.20;10.07;;;;;;;-0.88;74.62;93653.53;4136216;28;20093;-83
2021/01/27 01:10:52;;;;;;;15.45;10.20;;;;;;;-0.84;74.96;93652.38;4135904;28;20053;-84
2021/01/27 01:12:53;;;;;;;14.10;9.77;;;;;;;-0.90;75.01;93655.41;4134534;28;20470;-83
2021/01/27 01:14:54;;;;;;;17.20;10.90;;;;;;;-0.89;74.86;93659.59;4134448;28;20439;-83
2021/01/27 01:16:55;;;;;;;17.30;10.15;;;;;;;-0.87;75.21;93660.31;4133656;28;20050;-83
2021/01/27 01:18:57;;;;;;;16.48;9.57;;;;;;;-0.88;74.77;93661.25;4135003;28;20467;-82
2021/01/27 01:20:58;;;;;;;16.23;9.98;;;;;;;-0.78;74.75;93658.78;4134792;28;20345;-81
2021/01/27 01:23:01;;;;;;;16.30;10.55;;;;;;;-0.79;74.27;93661.50;4135316;28;20057;-84
2021/01/27 01:25:02;;;;;;;15.65;10.15;;;;;;;-0.80;75.26;93649.56;4134077;28;20418;-82
2021/01/27 01:27:05;;;;;;;14.85;9.10;;;;;;;-0.73;74.33;93650.72;4140031;28;20613;-82
2021/01/27 01:29:06;;;;;;;16.20;10.55;;;;;;;-0.80;74.81;93654.69;4137338;28;20061;-83
2021/01/27 01:31:07;;;;;;;18.13;10.70;;;;;;;-0.73;74.94;93645.56;4134652;28;20058;-82
2021/01/27 01:33:15;;;;;;;15.57;10.48;;;;;;;-0.73;74.48;93643.00;4135220;28;20054;-84
2021/01/27 01:35:18;;;;;;;16.67;10.50;;;;;;;-0.74;74.93;93639.63;4135679;28;20057;-84
2021/01/27 01:37:20;;;;;;;;;;;;;;;-0.67;74.44;93633.09;4135153;28;20423;-83
2021/01/27 01:39:21;;;;;;;15.30;10.32;;;;;;;-0.70;74.28;93628.16;4138463;28;19929;-82
2021/01/27 01:41:23;;;;;;;15.98;10.10;;;;;;;-0.80;74.88;93626.41;4123019;28;20055;-83
2021/01/27 01:43:31;;;;;;;15.35;10.32;;;;;;;-0.77;75.15;93629.59;4135560;28;20112;-84
2021/01/27 01:45:41;;;;;;;15.13;9.93;;;;;;;-0.84;75.33;93625.81;4148423;28;20057;-83
2021/01/27 01:47:42;;;;;;;14.38;10.02;;;;;;;-0.81;75.57;93617.91;4122842;28;20562;-83
2021/01/27 01:49:44;;;;;;;14.50;9.77;;;;;;;-0.71;75.99;93628.28;4133948;28;20058;-83
2021/01/27 01:51:53;;;;;;;14.73;9.85;;;;;;;-0.75;75.18;93624.31;4126941;28;20054;-84
2021/01/27 01:54:02;;;;;;;14.27;9.50;;;;;;;-0.73;75.48;93630.16;4133811;28;20058;-83
2021/01/27 01:56:06;;;;;;;13.05;9.10;;;;;;;-0.73;75.20;93628.41;4134592;28;20062;-85
2021/01/27 01:58:09;;;;;;;16.00;10.02;;;;;;;-0.77;74.95;93629.59;4129179;28;20058;-83
2021/01/27 02:00:11;;;;;;;14.68;9.35;;;;;;;-0.80;75.35;93624.66;4121516;28;20059;-83
2021/01/27 02:02:13;;;;;;;13.38;9.18;;;;;;;-0.82;75.56;93613.66;4136047;28;20050;-83
2021/01/27 02:04:15;;;;;;;15.70;10.57;;;;;;;-0.88;75.65;93627.03;4127465;28;20478;-81
2021/01/27 02:06:17;;;;;;;14.23;9.35;;;;;;;-0.91;76.27;93630.63;4117556;28;20046;-85
2021/01/27 02:08:18;;;;;;;15.20;9.27;;;;;;;-0.87;75.81;93632.03;4133007;28;20081;-84
2021/01/27 02:10:20;;;;;;;15.35;10.38;;;;;;;-0.78;76.01;93630.50;4123520;28;20078;-84
2021/01/27 02:12:30;;;;;;;15.15;9.52;;;;;;;-0.79;75.53;93621.16;4144951;28;20108;-83
2021/01/27 02:14:47;;;;;;;14.63;9.60;;;;;;;-0.97;76.61;93618.22;4119635;28;20137;-69
2021/01/27 02:16:55;;;;;;;14.10;9.05;;;;;;;-0.89;76.73;93626.19;4109001;28;20051;-71
2021/01/27 02:19:27;;;;;;;14.43;9.93;;;;;;;-0.96;76.38;93624.22;4137604;28;20313;-71
2021/01/27 02:21:43;;;;;;;12.65;8.25;;;;;;;-1.02;76.63;93627.22;4138055;28;20145;-71
2021/01/27 02:23:56;;;;;;;13.68;9.20;;;;;;;-0.98;76.87;93626.06;4125288;28;20049;-71
2021/01/27 02:26:46;;;;;;;14.18;9.10;;;;;;;-0.96;76.78;93630.16;4127677;28;20054;-70
2021/01/27 02:29:12;;;;;;;14.15;8.88;;;;;;;-0.91;76.29;93624.66;4104439;28;20135;-70
2021/01/27 02:31:47;;;;;;;13.13;9.15;;;;;;;-0.90;76.55;93618.59;4113189;28;20500;-70
2021/01/27 02:34:33;;;;;;;12.95;8.98;;;;;;;-0.91;76.74;93622.09;4127030;28;20420;-71
2021/01/27 02:36:43;;;;;;;13.68;8.98;;;;;;;-0.93;76.78;93629.09;4118283;28;20053;-70
2021/01/27 02:38:53;;;;;;;13.55;9.73;;;;;;;-1.03;77.23;93626.44;4134766;28;20046;-70
2021/01/27 02:41:18;;;;;;;12.52;8.52;;;;;;;-1.04;77.55;93637.63;4127060;28;20053;-71
2021/01/27 02:43:31;;;;;;;;;;;;;;;-1.08;77.57;93643.94;4129917;28;20554;-70
2021/01/27 02:45:35;;;;;;;12.82;8.13;;;;;;;-1.01;77.59;93647.69;4128059;28;19952;-82
2021/01/27 02:47:44;;;;;;;14.18;9.43;;;;;;;-0.94;77.28;93648.84;4133601;28;20052;-82
2021/01/27 02:49:49;;;;;;;13.68;8.48;;;;;;;-0.96;77.30;93648.16;4132839;28;20202;-80
2021/01/27 02:51:58;;;;;;;12.70;8.85;;;;;;;-0.94;77.48;93659.16;4125335;28;20061;-81
2021/01/27 02:54:09;;;;;;;12.95;8.70;;;;;;;-0.88;77.22;93663.00;4139284;28;20054;-82
2021/01/27 02:56:35;;;;;;;13.10;8.82;;;;;;;-0.88;77.01;93653.53;4136970;28;20080;-82
2021/01/27 02:58:47;;;;;;;13.65;9.07;;;;;;;-0.85;77.24;93665.34;4126856;28;20047;-84
2021/01/27 03:00:53;;;;;;;12.98;8.82;;;;;;;-0.85;76.98;93658.44;4110024;28;20050;-84
2021/01/27 03:03:07;;;;;;;14.85;9.23;;;;;;;-0.72;77.29;93653.19;4122936;28;20129;-84
2021/01/27 03:05:15;;;;;;;12.18;7.90;;;;;;;-0.62;77.13;93659.28;4117050;28;20051;-82
2021/01/27 03:07:17;;;;;;;11.80;8.30;;;;;;;-0.64;76.48;93662.91;4132089;28;20062;-82
2021/01/27 03:09:27;;;;;;;12.27;8.57;;;;;;;-0.75;76.90;93665.44;4133148;28;20052;-81
2021/01/27 03:11:35;;;;;;;12.70;8.82;;;;;;;-0.70;76.86;93663.38;4132448;28;20051;-83
2021/01/27 03:13:38;;;;;;;14.32;9.25;;;;;;;-0.81;77.02;93674.47;4133922;28;20057;-85
2021/01/27 03:15:40;;;;;;;13.13;9.07;;;;;;;-0.75;77.04;93668.88;4131953;28;20134;-81
2021/01/27 03:17:42;;;;;;;13.32;8.65;;;;;;;-0.81;77.11;93668.50;4138343;28;20642;-82
2021/01/27 03:20:07;;;;;;;13.23;9.15;;;;;;;-0.88;77.32;93675.88;4136904;28;20593;-82
2021/01/27 03:22:14;;;;;;;13.00;9.00;;;;;;;-0.88;77.59;93678.44;4133478;28;20057;-83
2021/01/27 03:24:21;;;;;;;16.27;9.25;;;;;;;-0.83;77.50;93677.16;4131154;28;20169;-84
2021/01/27 03:26:36;;;;;;;14.88;9.38;;;;;;;-0.82;77.56;93675.38;4130114;28;20050;-82
2021/01/27 03:28:44;;;;;;;13.38;8.32;;;;;;;-0.83;77.28;93672.00;4127477;28;20046;-83
2021/01/27 03:30:45;;;;;;;13.93;9.40;;;;;;;-0.78;77.28;93681.13;4138083;28;20051;-84
2021/01/27 03:33:10;;;;;;;13.85;9.25;;;;;;;-0.78;77.57;93675.97;4136647;28;20054;-82
2021/01/27 03:35:26;;;;;;;13.68;9.32;;;;;;;-0.72;77.36;93678.09;4121956;28;20053;-84
2021/01/27 03:37:33;;;;;;;12.45;8.80;;;;;;;-0.90;77.96;93682.88;4136383;28;20050;-83
2021/01/27 03:39:37;;;;;;;15.88;10.23;;;;;;;-0.96;78.15;93685.91;4135305;28;20077;-84
2021/01/27 03:41:44;;;;;;;14.38;9.63;;;;;;;-0.89;78.10;93687.88;4133317;28;20058;-85
2021/01/27 03:44:23;;;;;;;14.25;9.48;;;;;;;-0.98;78.73;93698.06;4134005;28;20062;-83
2021/01/27 03:46:33;;;;;;;14.50;10.02;;;;;;;-0.88;78.53;93691.31;4121628;28;20536;-83
2021/01/27 03:48:40;;;;;;;13.77;8.75;;;;;;;-0.98;78.38;93696.28;4133786;28;20042;-82
2021/01/27 03:50:42;;;;;;;13.68;8.90;;;;;;;-1.08;78.82;93703.03;4123803;28;20043;-81
2021/01/27 03:53:04;;;;;;;13.05;8.55;;;;;;;-1.06;79.14;93698.59;4131673;28;20047;-82
2021/01/27 03:55:13;;;;;;;14.88;9.75;;;;;;;-0.99;78.99;93707.53;4132872;28;20070;-81
2021/01/27 03:57:19;;;;;;;13.13;9.25;;;;;;;-0.88;78.75;93704.16;4132631;28;20484;-85
2021/01/27 03:59:21;;;;;;;12.05;8.65;;;;;;;-0.87;78.62;93708.34;4132837;28;20048;-82
2021/01/27 04:01:23;;;;;;;15.95;9.43;;;;;;;-1.09;78.54;93701.41;4133092;28;20487;-83
2021/01/27 04:03:24;;;;;;;14.65;9.77;;;;;;;-1.16;79.83;93702.78;4132882;28;20447;-84
2021/01/27 04:05:26;;;;;;;13.60;9.13;;;;;;;-1.14;79.54;93703.50;4133975;28;20054;-80
2021/01/27 04:07:27;;;;;;;14.40;9.77;;;;;;;-1.48;80.26;93703.41;4129481;28;20067;-83
2021/01/27 04:09:28;;;;;;;15.13;10.40;;;;;;;-1.35;80.18;93706.72;4123295;28;20073;-85
2021/01/27 04:11:30;;;;;;;15.70;10.30;;;;;;;-1.68;81.02;93715.09;4133272;28;20046;-84
2021/01/27 04:13:32;;;;;;;13.27;9.35;;;;;;;-1.56;81.45;93709.09;4117199;28;20051;-84
2021/01/27 04:15:33;;;;;;;14.32;9.55;;;;;;;-1.38;81.00;93706.13;4133636;28;20054;-85
2021/01/27 04:17:34;;;;;;;13.85;9.77;;;;;;;-1.30;80.06;93704.63;4118343;28;20478;-82
2021/01/27 04:19:36;;;;;;;14.60;9.27;;;;;;;-1.18;79.64;93713.19;4121461;28;20047;-83
2021/01/27 04:21:37;;;;;;;17.25;9.13;;;;;;;-1.22;79.20;93710.97;4116036;28;20046;-83
2021/01/27 04:23:38;;;;;;;14.48;9.98;;;;;;;-1.17;79.41;93711.44;4143998;28;20110;-84
2021/01/27 04:25:39;;;;;;;13.02;9.77;;;;;;;-1.07;79.17;93709.84;4137595;28;20050;-83
2021/01/27 04:27:41;;;;;;;13.40;9.60;;;;;;;-1.02;78.72;93715.44;4134614;28;20112;-85
2021/01/27 04:29:42;;;;;;;14.20;8.88;;;;;;;-1.02;77.88;93719.78;4118944;28;20566;-69
2021/01/27 04:31:43;;;;;;;16.17;10.18;;;;;;;-0.99;78.29;93722.09;4127493;28;20201;-70
2021/01/27 04:33:45;;;;;;;14.50;9.65;;;;;;;-0.93;77.66;93722.47;4128866;28;20046;-72
2021/01/27 04:35:46;;;;;;;13.68;9.80;;;;;;;-0.94;77.20;93713.13;4127474;28;20054;-70
2021/01/27 04:37:48;;;;;;;14.20;9.70;;;;;;;-0.94;76.50;93710.56;4127698;28;20055;-70
2021/01/27 04:39:49;;;;;;;13.88;10.13;;;;;;;-1.17;77.63;93714.00;4125745;28;20050;-69
2021/01/27 04:41:53;;;;;;;13.02;9.13;;;;;;;-1.06;77.41;93717.41;4130183;28;20050;-71
2021/01/27 04:43:54;;;;;;;15.68;9.25;;;;;;;-1.14;77.56;93718.91;4119992;28;20057;-70
2021/01/27 04:46:18;;;;;;;12.32;9.30;;;;;;;-1.15;77.48;93723.25;4112950;28;20555;-70
2021/01/27 04:48:30;;;;;;;13.80;8.85;;;;;;;-1.31;77.92;93715.03;4119526;28;20042;-70
2021/01/27 04:50:37;;;;;;;13.30;8.80;;;;;;;-1.42;77.87;93720.91;4137238;28;20050;-71
2021/01/27 04:53:03;;;;;;;14.80;8.95;;;;;;;-1.35;77.97;93727.28;4134744;28;20112;-70
2021/01/27 04:55:10;;;;;;;15.25;9.05;;;;;;;-1.28;77.83;93722.50;4118718;28;20523;-70
2021/01/27 04:57:39;;;;;;;13.70;9.30;;;;;;;-1.34;77.61;93738.38;4114781;28;20055;-71
2021/01/27 05:00:18;;;;;;;15.10;9.63;;;;;;;-1.34;77.86;93746.06;4132047;28;20053;-70
2021/01/27 05:02:29;;;;;;;13.82;9.25;;;;;;;-1.46;78.15;93746.03;4130461;28;20046;-71
2021/01/27 05:04:52;;;;;;;13.55;8.63;;;;;;;-1.45;78.48;93739.94;4128697;28;20050;-70
2021/01/27 05:06:59;;;;;;;13.77;8.68;;;;;;;-1.44;78.27;93751.06;4131752;28;20065;-69
2021/01/27 05:09:15;;;;;;;13.35;9.35;;;;;;;-1.65;79.25;93743.97;4121773;28;20511;-70
2021/01/27 05:11:16;;;;;;;16.25;10.35;;;;;;;-1.61;79.30;93747.13;4120809;28;20066;-72
2021/01/27 05:13:26;;;;;;;15.20;9.80;;;;;;;-1.52;79.33;93745.66;4131547;28;20073;-70
2021/01/27 05:15:28;;;;;;;15.82;9.30;;;;;;;-1.35;78.63;93747.81;4128532;28;20073;-70
2021/01/27 05:17:29;;;;;;;13.38;9.20;;;;;;;-1.38;77.94;93747.22;4130160;28;20056;-83
2021/01/27 05:19:31;;;;;;;15.52;9.80;;;;;;;-1.36;77.51;93746.19;4122068;28;20132;-87
2021/01/27 05:21:37;;;;;;;14.68;9.65;;;;;;;-1.29;77.38;93746.53;4133300;28;20050;-84
2021/01/27 05:23:38;;;;;;;13.82;9.60;;;;;;;-1.39;77.22;93746.41;4133947;28;20061;-83
2021/01/27 05:25:43;;;;;;;12.90;8.80;;;;;;;-1.36;77.12;93753.88;4117747;28;20077;-85
2021/01/27 05:27:46;;;;;;;23.27;11.25;;;;;;;-1.38;76.49;93750.59;4121150;28;20064;-83
2021/01/27 05:29:58;;;;;;;14.98;9.65;;;;;;;-1.40;76.27;93751.66;4136686;28;20145;-86
2021/01/27 05:32:08;;;;;;;12.13;8.32;;;;;;;-1.39;76.51;93756.69;4139390;28;20073;-83
2021/01/27 05:34:10;;;;;;;12.30;8.35;;;;;;;-1.35;76.40;93755.53;4139110;28;20060;-83
2021/01/27 05:36:17;;;;;;;14.45;8.88;;;;;;;-1.18;75.62;93766.31;4134331;28;20125;-84
2021/01/27 05:38:18;;;;;;;13.40;8.27;;;;;;;-1.26;74.60;93775.41;4134109;28;20054;-83
2021/01/27 05:40:35;;;;;;;14.65;8.75;;;;;;;-1.25;74.65;93782.22;4134212;28;20093;-83
2021/01/27 05:42:38;;;;;;;13.35;8.38;;;;;;;-1.27;73.98;93784.06;4134079;28;20511;-83
2021/01/27 05:44:40;;;;;;;15.20;9.20;;;;;;;-1.34;74.04;93775.16;4133373;28;20053;-86
2021/01/27 05:46:41;;;;;;;14.55;9.40;;;;;;;-1.21;73.70;93771.69;4133344;28;20424;-83
2021/01/27 05:48:49;;;;;;;17.80;9.65;;;;;;;-1.13;73.65;93777.13;4125833;28;20051;-87
2021/01/27 05:50:51;;;;;;;15.13;9.55;;;;;;;-1.14;72.87;93780.59;4138275;28;20056;-83
2021/01/27 05:52:53;;;;;;;18.10;9.70;;;;;;;-1.15;72.81;93778.97;4137783;28;20420;-87
2021/01/27 05:55:06;;;;;;;15.73;9.70;;;;;;;-1.15;72.75;93779.78;4129274;28;20066;-70
2021/01/27 05:57:26;;;;;;;13.80;8.87;;;;;;;-1.09;72.38;93778.53;4113618;28;20057;-71
2021/01/27 05:59:28;;;;;;;10.20;7.30;;;;;;;-1.13;71.72;93779.69;4123029;28;20045;-69
2021/01/27 06:01:39;;;;;;;12.90;7.90;;;;;;;-1.15;71.24;93787.50;4127560;28;20610;-71
2021/01/27 06:03:58;;;;;;;11.98;8.30;;;;;;;-1.21;71.77;93782.78;4125073;28;20066;-71
2021/01/27 06:06:09;;;;;;;11.77;7.80;;;;;;;-1.20;71.50;93788.78;4119084;28;20511;-70
2021/01/27 06:08:19;;;;;;;10.95;8.18;;;;;;;-1.20;71.56;93784.44;4118392;28;20892;-72
2021/01/27 06:10:26;;;;;;;11.68;8.07;;;;;;;-1.18;71.43;93782.59;4110643;28;20051;-71
2021/01/27 06:12:28;;;;;;;11.88;7.72;;;;;;;-1.22;70.86;93780.34;4116211;28;20129;-72
2021/01/27 06:14:30;;;;;;;13.68;8.20;;;;;;;-1.30;70.44;93786.03;4127868;28;20066;-72
2021/01/27 06:16:34;;;;;;;12.25;7.40;;;;;;;-1.35;71.17;93795.84;4111858;28;20105;-72
2021/01/27 06:18:36;;;;;;;12.18;7.80;;;;;;;-1.42;70.83;93789.47;4117602;28;20047;-72
2021/01/27 06:20:37;;;;;;;11.50;7.82;;;;;;;-1.39;71.15;93787.50;4112742;28;20527;-73
2021/01/27 06:23:12;;;;;;;11.48;7.20;;;;;;;-1.43;70.16;93795.56;4127558;28;20050;-71
2021/01/27 06:25:35;;;;;;;;;;;;;;;-1.40;70.83;93788.44;4123779;28;20157;-71
2021/01/27 06:27:55;;;;;;;13.15;8.73;;;;;;;-1.47;70.57;93794.94;4113395;28;20276;-72
2021/01/27 06:30:01;;;;;;;13.85;8.68;;;;;;;-1.43;70.93;93790.41;4129551;28;20050;-71
2021/01/27 06:32:33;;;;;;;12.52;7.93;;;;;;;-1.36;70.49;93789.84;4125690;28;20564;-70
2021/01/27 06:35:09;;;;;;;12.95;8.70;;;;;;;-1.24;70.61;93793.31;4125882;28;20054;-71
2021/01/27 06:37:48;;;;;;;12.00;8.23;;;;;;;-1.23;70.12;93787.22;4121083;28;20518;-70
2021/01/27 06:39:56;;;;;;;12.60;8.30;;;;;;;-1.22;70.42;93788.06;4123961;28;20050;-70
2021/01/27 06:42:22;;;;;;;13.43;8.07;;;;;;;-1.25;69.82;93779.66;4114192;28;20455;-74
2021/01/27 06:44:39;;;;;;;11.45;7.57;;;;;;;-1.29;70.04;93780.78;4126396;28;20046;-71
2021/01/27 06:47:16;;;;;;;14.88;8.73;;;;;;;-1.28;70.42;93779.03;4123168;28;20057;-73
2021/01/27 06:49:36;;;;;;;14.63;9.00;;;;;;;-1.30;70.24;93781.72;4114587;28;20064;-70
2021/01/27 06:51:59;;;;;;;17.00;9.15;;;;;;;-1.20;69.88;93778.50;4120655;28;20050;-71
2021/01/27 06:54:25;;;;;;;13.43;8.90;;;;;;;-1.14;69.70;93780.59;4112423;28;20062;-70
2021/01/27 06:56:45;;;;;;;13.35;8.40;;;;;;;-1.16;69.19;93783.31;4120935;28;20482;-70
2021/01/27 06:59:04;;;;;;;12.48;8.45;;;;;;;-1.14;69.16;93780.59;4127970;28;20054;-71
2021/01/27 07:02:02;;;;;;;15.18;9.23;;;;;;;-1.16;68.91;93772.19;4126340;28;20487;-71
2021/01/27 07:04:22;;;;;;;13.70;8.45;;;;;;;-1.18;68.55;93774.88;4081292;29;20556;-74
2021/01/27 07:06:50;;;;;;;11.82;7.93;;;;;;;-1.17;68.67;93783.41;4121374;28;20503;-72
2021/01/27 07:09:15;;;;;;;12.20;8.38;;;;;;;-1.19;68.41;93780.13;4125231;28;20065;-72
2021/01/27 07:11:34;;;;;;;15.82;8.05;;;;;;;-1.24;68.11;93788.97;4119470;28;20049;-70
2021/01/27 07:14:07;;;;;;;15.07;8.57;;;;;;;-1.32;68.07;93796.41;4129602;28;20054;-73
2021/01/27 07:16:11;;;;;;;13.02;8.27;;;;;;;-1.15;68.34;93792.63;4115194;28;20053;-73
2021/01/27 07:18:31;;;;;;;13.85;8.93;;;;;;;-1.12;68.13;93801.88;4125802;28;20133;-72
2021/01/27 07:20:53;;;;;;;12.40;7.88;;;;;;;-1.07;67.47;93795.47;4129004;28;20049;-70
2021/01/27 07:23:00;;;;;;;11.50;7.22;;;;;;;-1.20;67.73;93802.44;4116601;28;20054;-73
2021/01/27 07:25:18;;;;;;;13.18;7.70;;;;;;;-1.35;67.97;93801.78;4127239;28;20129;-72
2021/01/27 07:27:22;;;;;;;13.90;8.40;;;;;;;-1.22;67.24;93817.16;4127505;28;20054;-71
2021/01/27 07:29:31;;;;;;;11.68;7.88;;;;;;;-1.11;67.35;93822.31;4126392;28;20089;-72
2021/01/27 07:31:36;;;;;;;12.68;7.70;;;;;;;-1.18;67.38;93815.16;4129110;28;20042;-72
2021/01/27 07:34:18;;;;;;;14.20;7.25;;;;;;;-1.15;67.04;93817.53;4126885;28;20055;-74
2021/01/27 07:36:25;;;;;;;12.98;8.50;;;;;;;-1.03;66.96;93821.78;4125396;28;20105;-72
2021/01/27 07:38:29;;;;;;;14.35;8.18;;;;;;;-1.05;66.85;93818.50;4127974;28;20412;-72
2021/01/27 07:40:36;;;;;;;14.13;7.82;;;;;;;-0.99;66.46;93818.06;4125467;28;20101;-72
2021/01/27 07:43:04;;;;;;;12.52;7.47;;;;;;;-1.09;66.28;93817.91;4124820;28;20085;-69
2021/01/27 07:45:17;;;;;;;14.60;8.57;;;;;;;-1.04;66.53;93809.84;4125375;28;20050;-70
2021/01/27 07:47:34;;;;;;;11.43;7.60;;;;;;;-1.00;66.62;93803.56;4128114;28;20046;-71
2021/01/27 07:49:48;;;;;;;11.90;7.45;;;;;;;-0.98;65.42;93818.88;4124187;28;20052;-72
2021/01/27 07:51:53;;;;;;;12.18;7.80;;;;;;;-1.10;66.53;93811.13;4123062;28;20090;-85
2021/01/27 07:54:28;;;;;;;10.85;7.05;;;;;;;-1.00;65.66;93810.47;4124440;28;20051;-85
2021/01/27 07:56:35;;;;;;;13.23;7.82;;;;;;;-0.88;65.33;93812.16;4121745;28;20047;-87
2021/01/27 07:58:59;;;;;;;9.23;6.60;;;;;;;-0.83;65.04;93812.63;4137426;28;20046;-87
2021/01/27 08:01:03;;;;;;;12.15;7.13;;;;;;;-0.85;64.65;93812.72;4143006;28;20388;-87
2021/01/27 08:03:11;;;;;;;;;;;;;;;-0.90;64.91;93817.41;4142666;28;20050;-88
2021/01/27 08:05:12;;;;;;;12.77;7.60;;;;;;;-0.83;65.04;93815.19;4143908;28;19949;-84
2021/01/27 08:07:24;;;;;;;13.23;7.80;;;;;;;-0.78;64.05;93818.22;4143211;28;20049;-86
2021/01/27 08:09:39;;;;;;;14.13;8.18;;;;;;;-0.73;64.95;93812.75;4137478;28;20050;-86
2021/01/27 08:11:42;;;;;;;10.27;7.43;;;;;;;-0.65;64.75;93807.88;4135880;28;20416;-86
2021/01/27 08:13:44;;;;;;;15.30;8.02;;;;;;;-0.74;63.94;93826.56;4137301;28;20086;-84
2021/01/27 08:16:15;;;;;;;11.88;7.75;;;;;;;-0.53;63.75;93822.41;4136612;28;20113;-86
2021/01/27 08:18:18;;;;;;;11.38;7.38;;;;;;;-0.56;64.16;93820.06;4138253;28;20046;-86
2021/01/27 08:20:20;;;;;;;14.02;8.35;;;;;;;-0.52;63.55;93818.06;4135996;28;20050;-85
2021/01/27 08:22:48;;;;;;;14.60;8.30;;;;;;;-0.46;63.74;93812.47;4136943;28;20182;-86
2021/01/27 08:24:50;;;;;;;14.52;9.35;;;;;;;-0.52;64.04;93813.72;4138743;28;20062;-86
2021/01/27 08:26:52;;;;;;;13.40;8.95;;;;;;;-0.37;63.99;93804.06;4136265;28;20463;-86
2021/01/27 08:29:04;;;;;;;11.70;8.40;;;;;;;-0.42;64.13;93808.72;4137520;28;20053;-87
2021/01/27 08:31:16;;;;;;;11.25;8.02;;;;;;;-0.37;63.95;93821.25;4138711;28;20083;-85
2021/01/27 08:33:42;;;;;;;12.68;8.95;;;;;;;-0.24;63.72;93809.94;4139640;28;20458;-86
2021/01/27 08:35:43;;;;;;;15.80;9.57;;;;;;;0.07;63.05;93812.75;4139121;28;20138;-85
2021/01/27 08:38:31;;;;;;;11.80;7.65;;;;;;;0.05;62.51;93818.97;4139641;28;20054;-85
2021/01/27 08:40:33;;;;;;;10.05;7.10;;;;;;;-0.15;61.92;93815.31;4136304;28;20089;-86
2021/01/27 08:42:46;;;;;;;11.75;7.00;;;;;;;-0.17;62.69;93818.00;4139254;28;20050;-85
2021/01/27 08:44:47;;;;;;;13.52;8.38;;;;;;;0.03;62.80;93811.34;4144416;28;20084;-86
2021/01/27 08:47:23;;;;;;;10.25;6.53;;;;;;;0.13;60.94;93822.59;4150135;28;20050;-87
2021/01/27 08:49:58;;;;;;;9.32;6.53;;;;;;;0.21;60.75;93821.97;4134785;28;20559;-86
2021/01/27 08:51:59;;;;;;;14.93;7.70;;;;;;;0.16;61.69;93816.38;4129430;28;20069;-89
2021/01/27 08:54:26;;;;;;;10.48;7.63;;;;;;;0.16;61.66;93813.78;4137276;28;20046;-87
2021/01/27 08:57:06;;;;;;;10.52;7.78;;;;;;;0.25;61.20;93813.06;4140335;28;20050;-86
2021/01/27 08:59:27;;;;;;;12.50;7.68;;;;;;;0.25;61.33;93823.38;4141462;28;20134;-86
2021/01/27 09:01:29;;;;;;;11.70;6.97;;;;;;;0.30;61.61;93818.72;4137803;28;20052;-86
2021/01/27 09:03:37;;;;;;;11.18;7.13;;;;;;;0.14;61.40;93820.81;4139134;28;20479;-90
2021/01/27 09:05:40;;;;;;;9.60;7.03;;;;;;;-0.02;61.85;93822.00;4138929;28;20065;-87
2021/01/27 09:07:59;;;;;;;13.00;7.33;;;;;;;-0.01;62.87;93825.38;4132296;28;20047;-88
2021/01/27 09:10:03;;;;;;;11.15;6.75;;;;;;;-0.03;62.51;93820.34;4130764;28;20073;-88
2021/01/27 09:12:08;;;;;;;;;;;;;;;-0.21;62.68;93824.31;4138110;28;20053;-88
2021/01/27 09:14:15;;;;;;;9.63;6.63;;;;;;;-0.01;62.81;93821.03;4138451;28;19921;-88
2021/01/27 09:16:16;;;;;;;9.48;6.75;;;;;;;0.06;62.05;93820.56;4137707;28;20410;-88
2021/01/27 09:18:17;;;;;;;10.38;7.00;;;;;;;-0.12;62.45;93830.53;4139623;28;20185;-85
2021/01/27 09:20:28;;;;;;;9.60;6.88;;;;;;;-0.27;63.50;93832.50;4137470;28;20061;-86
2021/01/27 09:22:29;;;;;;;11.50;6.90;;;;;;;-0.21;63.26;93832.03;4138662;28;20050;-83
2021/01/27 09:24:41;;;;;;;8.48;6.32;;;;;;;-0.23;63.25;93847.59;4121298;28;20047;-87
2021/01/27 09:26:57;;;;;;;8.40;5.97;;;;;;;-0.39;63.30;93841.94;4138367;28;20057;-87
2021/01/27 09:29:36;;;;;;;9.63;6.57;;;;;;;-0.15;63.25;93851.34;4144582;28;20054;-87
2021/01/27 09:31:37;;;;;;;12.20;7.38;;;;;;;-0.12;63.43;93851.13;4132251;28;20061;-88
2021/01/27 09:33:39;;;;;;;9.95;7.60;;;;;;;0.02;63.25;93848.31;4140969;28;20054;-85
2021/01/27 09:35:41;;;;;;;14.90;7.93;;;;;;;0.02;62.71;93853.47;4142209;28;20055;-87
2021/01/27 09:37:50;;;;;;;12.15;7.07;;;;;;;0.08;62.38;93854.75;4124356;28;20070;-85
2021/01/27 09:40:09;;;;;;;10.50;6.90;;;;;;;0.16;62.55;93857.56;4144854;28;20050;-85
2021/01/27 09:42:17;;;;;;;9.35;5.90;;;;;;;-0.17;62.73;93864.34;4129574;28;20050;-85
2021/01/27 09:44:27;;;;;;;10.60;6.32;;;;;;;-0.17;62.74;93868.66;4138042;28;20145;-87
2021/01/27 09:46:37;;;;;;;11.30;7.25;;;;;;;-0.29;62.63;93867.84;4141574;28;20078;-85
2021/01/27 09:48:40;;;;;;;9.48;6.35;;;;;;;-0.32;62.98;93870.63;4155458;28;20045;-87
2021/01/27 09:50:46;;;;;;;10.48;6.35;;;;;;;-0.30;63.54;93868.75;4144359;28;20053;-84
2021/01/27 09:52:53;;;;;;;10.00;7.07;;;;;;;-0.27;63.67;93871.91;4154175;28;20081;-88
2021/01/27 09:55:11;;;;;;;10.38;7.03;;;;;;;-0.32;64.21;93875.75;4145166;28;20053;-88
2021/01/27 09:57:14;;;;;;;9.73;6.30;;;;;;;-0.32;64.32;93871.47;4132229;28;20050;-85
2021/01/27 09:59:16;;;;;;;10.05;6.88;;;;;;;-0.30;64.21;93869.59;4144809;28;20046;-87
2021/01/27 10:01:22;;;;;;;10.10;6.15;;;;;;;-0.48;63.98;93863.22;4142997;28;20047;-85
2021/01/27 10:03:29;;;;;;;9.40;6.65;;;;;;;-0.44;65.14;93855.16;4142963;28;20077;-85
2021/01/27 10:05:33;;;;;;;8.30;6.43;;;;;;;-0.27;64.54;93859.06;4147675;28;20129;-88